Time;durP1;ratioP1;P1;durP2;ratioP2;P2;SDS_P1;SDS_P2;PMS_P1;PMS_P2;Temp;Humidity;BMP_temperature;BMP_pressure;BME280_temperature;BME280_humidity;BME280_pressure;Samples;Min_cycle;Max_cycle;Signal;HPM_P1;HPM_P2
2023/06/28 00:01:24;;;;;;;4.82;3.42;;;;;;;22.41;81.29;97844.00;5012418;28;20194;-57
2023/06/28 00:03:50;;;;;;;2.83;2.63;;;;;;;22.43;81.24;97851.72;5012283;28;20699;-57
2023/06/28 00:06:15;;;;;;;4.40;3.28;;;;;;;22.54;80.75;97867.03;5012370;28;20249;-57
2023/06/28 00:08:40;;;;;;;3.67;3.38;;;;;;;22.42;81.70;97860.63;5012348;28;20187;-57
2023/06/28 00:11:07;;;;;;;3.78;3.33;;;;;;;22.48;82.01;97857.25;5012339;28;20193;-57
2023/06/28 00:13:33;;;;;;;4.20;3.80;;;;;;;22.49;81.72;97869.44;5041051;28;20200;-59
2023/06/28 00:15:58;;;;;;;4.13;3.40;;;;;;;22.46;80.79;97864.53;5051828;28;20185;-57
2023/06/28 00:18:25;;;;;;;3.50;2.83;;;;;;;22.40;80.27;97865.28;5051725;28;20672;-57
2023/06/28 00:20:51;;;;;;;5.03;3.10;;;;;;;22.44;79.76;97862.09;5051786;28;20182;-57
2023/06/28 00:23:16;;;;;;;3.05;2.75;;;;;;;22.27;79.95;97833.56;5051720;28;20673;-58
2023/06/28 00:25:42;;;;;;;4.00;3.70;;;;;;;22.17;81.28;97822.53;5051752;28;20185;-57
2023/06/28 00:28:07;;;;;;;3.58;3.20;;;;;;;22.17;80.74;97827.81;5051617;28;20206;-57
2023/06/28 00:30:33;;;;;;;3.55;3.25;;;;;;;22.01;82.87;97817.53;5051554;28;20190;-57
2023/06/28 00:32:58;;;;;;;3.60;3.30;;;;;;;21.98;84.75;97825.81;5051557;28;20280;-57
2023/06/28 00:35:24;;;;;;;3.58;3.28;;;;;;;21.94;85.82;97819.31;5053314;28;20177;-57
2023/06/28 00:37:49;;;;;;;3.22;3.03;;;;;;;21.90;86.39;97833.84;5071411;28;20239;-57
2023/06/28 00:40:14;;;;;;;3.53;3.33;;;;;;;22.01;85.04;97839.44;5071427;28;20223;-57
2023/06/28 00:42:40;;;;;;;4.35;3.08;;;;;;;21.99;85.62;97836.19;5071379;28;20181;-57
2023/06/28 00:45:13;;;;;;;3.35;3.13;;;;;;;21.85;85.68;97834.44;5057235;28;20185;-57
2023/06/28 00:47:39;;;;;;;3.97;3.42;;;;;;;21.65;87.08;97808.88;5053760;28;20177;-57
2023/06/28 00:50:06;;;;;;;4.05;3.65;;;;;;;21.56;88.42;97824.00;5053679;28;20173;-57
2023/06/28 00:52:32;;;;;;;3.97;3.58;;;;;;;21.60;89.65;97832.31;5053249;28;20547;-57
2023/06/28 00:55:00;;;;;;;4.55;4.03;;;;;;;21.48;90.89;97828.56;5053559;28;20177;-57
2023/06/28 00:57:26;;;;;;;5.10;3.20;;;;;;;21.48;90.62;97826.75;5053407;28;20205;-57
2023/06/28 00:59:52;;;;;;;4.03;3.60;;;;;;;21.33;91.67;97823.34;5070863;28;20702;-57
2023/06/28 01:02:19;;;;;;;4.30;3.38;;;;;;;21.36;90.58;97828.25;5070980;28;20176;-57
2023/06/28 01:04:44;;;;;;;3.25;3.03;;;;;;;21.42;90.42;97826.69;5070726;28;20206;-57
2023/06/28 01:07:11;;;;;;;3.85;3.55;;;;;;;21.49;90.64;97827.56;5070962;28;20267;-57
2023/06/28 01:09:39;;;;;;;5.07;3.60;;;;;;;21.47;90.41;97829.56;5070795;28;20180;-57
2023/06/28 01:12:05;;;;;;;4.07;3.67;;;;;;;21.55;89.79;97827.63;5070840;28;20184;-57
2023/06/28 01:14:31;;;;;;;8.30;3.75;;;;;;;21.43;90.34;97815.13;5070707;28;20192;-57
2023/06/28 01:16:56;;;;;;;4.15;3.72;;;;;;;21.37;88.49;97800.09;5070631;28;20212;-57
2023/06/28 01:19:24;;;;;;;4.75;3.65;;;;;;;21.40;88.30;97818.97;5070531;28;20197;-57
2023/06/28 01:21:54;;;;;;;5.00;3.60;;;;;;;21.42;89.09;97824.03;5070339;28;20189;-57
2023/06/28 01:24:21;;;;;;;3.00;2.80;;;;;;;21.41;87.25;97822.41;5070491;28;20632;-57
2023/06/28 01:26:52;;;;;;;5.93;3.30;;;;;;;21.43;88.52;97826.50;5070403;28;20192;-57
2023/06/28 01:29:21;;;;;;;3.47;3.17;;;;;;;21.19;88.16;97807.59;5070422;28;20184;-57
2023/06/28 01:31:52;;;;;;;3.95;3.40;;;;;;;21.26;89.00;97827.72;5032466;28;20193;-57
2023/06/28 01:34:18;;;;;;;5.05;3.90;;;;;;;21.21;88.87;97824.81;5030534;28;20209;-57
2023/06/28 01:36:46;;;;;;;3.80;3.42;;;;;;;21.18;90.59;97827.03;5030320;28;20715;-57
2023/06/28 01:39:12;;;;;;;3.95;3.65;;;;;;;21.17;92.79;97820.13;5030405;28;20260;-57
2023/06/28 01:41:39;;;;;;;4.15;3.17;;;;;;;21.17;92.23;97822.75;5030362;28;20719;-57
2023/06/28 01:44:04;;;;;;;4.90;3.53;;;;;;;21.18;90.80;97824.38;5030271;28;20189;-57
2023/06/28 01:46:30;;;;;;;4.10;3.58;;;;;;;21.09;91.81;97828.94;5030269;28;20559;-57
2023/06/28 01:48:56;;;;;;;4.32;3.92;;;;;;;20.95;92.83;97811.38;5030224;28;20193;-57
2023/06/28 01:51:22;;;;;;;5.25;3.70;;;;;;;20.94;93.13;97812.38;5030204;28;20239;-57
2023/06/28 01:53:47;;;;;;;4.13;3.80;;;;;;;20.96;94.43;97825.34;5048292;28;20193;-57
2023/06/28 01:56:12;;;;;;;5.65;3.53;;;;;;;20.97;95.04;97817.25;5050011;28;20679;-57
2023/06/28 01:58:38;;;;;;;4.22;3.53;;;;;;;20.87;94.31;97795.66;5049987;28;20185;-57
2023/06/28 02:01:04;;;;;;;3.67;3.38;;;;;;;20.92;93.02;97803.84;5049918;28;20181;-57
2023/06/28 02:03:29;;;;;;;7.68;3.40;;;;;;;20.89;93.94;97821.81;5049774;28;20201;-57
2023/06/28 02:05:55;;;;;;;6.30;4.03;;;;;;;21.04;93.27;97844.47;5049898;28;20188;-57
2023/06/28 02:08:21;;;;;;;4.20;3.47;;;;;;;20.80;92.78;97807.13;5050157;28;20197;-57
2023/06/28 02:10:46;;;;;;;5.10;3.95;;;;;;;21.05;93.06;97845.28;5052157;28;20627;-57
2023/06/28 02:13:12;;;;;;;4.07;3.50;;;;;;;20.90;92.99;97836.59;5052177;28;20223;-57
2023/06/28 02:15:37;;;;;;;3.67;3.35;;;;;;;20.96;93.49;97836.69;5052384;28;20553;-57
2023/06/28 02:18:03;;;;;;;4.40;3.00;;;;;;;21.06;92.87;97837.22;5052008;28;20232;-57
2023/06/28 02:20:29;;;;;;;4.15;3.75;;;;;;;21.05;91.92;97840.81;5029578;28;20181;-57
2023/06/28 02:22:54;;;;;;;5.30;3.38;;;;;;;21.15;91.83;97862.41;5029781;28;20197;-57
2023/06/28 02:25:20;;;;;;;5.45;3.50;;;;;;;21.01;91.17;97833.50;5029643;28;20236;-57
2023/06/28 02:27:45;;;;;;;5.22;3.50;;;;;;;21.23;90.71;97869.38;5029605;28;20655;-57
2023/06/28 02:30:11;;;;;;;4.85;3.72;;;;;;;21.13;90.21;97853.91;5029590;28;20193;-57
2023/06/28 02:32:36;;;;;;;3.95;3.50;;;;;;;21.14;90.84;97862.59;5029604;28;20197;-57
2023/06/28 02:35:01;;;;;;;5.03;3.55;;;;;;;21.12;91.10;97854.06;5029530;28;20726;-57
2023/06/28 02:37:27;;;;;;;4.20;3.80;;;;;;;21.14;91.15;97865.22;5029426;28;20730;-57
2023/06/28 02:39:52;;;;;;;3.63;3.40;;;;;;;21.13;91.28;97860.97;5029781;28;20272;-57
2023/06/28 02:42:18;;;;;;;3.83;3.42;;;;;;;21.17;91.05;97851.72;5029451;28;20185;-57
2023/06/28 02:44:44;;;;;;;4.57;4.00;;;;;;;21.07;90.38;97827.50;5029467;28;20337;-57
2023/06/28 02:47:09;;;;;;;4.20;3.83;;;;;;;21.22;90.61;97836.97;5029175;28;20185;-57
2023/06/28 02:49:35;;;;;;;4.70;3.47;;;;;;;21.12;89.99;97815.44;5029320;28;20724;-57
2023/06/28 02:52:00;;;;;;;5.45;4.05;;;;;;;21.29;90.01;97839.69;5043781;28;20181;-57
2023/06/28 02:54:25;;;;;;;3.67;3.38;;;;;;;21.07;91.06;97817.81;5063750;28;20708;-57
2023/06/28 02:56:51;;;;;;;4.50;3.70;;;;;;;21.13;92.02;97832.03;5069200;28;20218;-57
2023/06/28 02:59:16;;;;;;;4.93;4.43;;;;;;;21.10;92.39;97837.66;5069213;28;20180;-57
2023/06/28 03:01:41;;;;;;;3.85;3.50;;;;;;;21.18;91.42;97824.38;5029046;28;20189;-57
2023/06/28 03:04:07;;;;;;;4.05;3.30;;;;;;;21.16;90.82;97821.13;5029104;28;20214;-57
2023/06/28 03:06:34;;;;;;;3.78;3.20;;;;;;;21.29;90.32;97834.44;5009662;28;20295;-57
2023/06/28 03:09:00;;;;;;;3.88;3.47;;;;;;;21.30;89.52;97822.91;5013463;28;20685;-57
2023/06/28 03:11:25;;;;;;;4.18;3.60;;;;;;;21.22;89.63;97815.13;5013285;28;20234;-57
2023/06/28 03:13:50;;;;;;;5.15;3.90;;;;;;;21.29;89.08;97830.00;4974043;28;20187;-57
2023/06/28 03:16:16;;;;;;;3.70;3.30;;;;;;;21.21;89.47;97824.81;4973685;28;20278;-57
2023/06/28 03:18:41;;;;;;;3.85;3.55;;;;;;;21.36;89.44;97830.88;4974229;28;20180;-57
2023/06/28 03:21:07;;;;;;;3.88;3.42;;;;;;;21.35;87.81;97823.16;4974190;28;20188;-57
2023/06/28 03:23:32;;;;;;;3.78;3.40;;;;;;;21.22;87.47;97807.25;4974134;28;20360;-57
2023/06/28 03:25:58;;;;;;;3.90;3.60;;;;;;;21.27;88.28;97813.56;4974188;28;20194;-57
2023/06/28 03:28:23;;;;;;;4.30;3.83;;;;;;;21.44;88.82;97846.53;4974036;28;20192;-57
2023/06/28 03:30:48;;;;;;;4.97;3.83;;;;;;;21.42;89.20;97851.19;4974017;28;20682;-57
2023/06/28 03:33:14;;;;;;;3.60;3.40;;;;;;;21.33;88.99;97827.81;5002355;28;20274;-57
2023/06/28 03:35:39;;;;;;;4.80;3.45;;;;;;;21.46;89.34;97849.00;5013023;28;20185;-57
2023/06/28 03:38:05;;;;;;;4.03;3.38;;;;;;;21.48;89.86;97854.88;5012905;28;20253;-57
2023/06/28 03:40:30;;;;;;;4.70;3.33;;;;;;;21.42;89.22;97853.00;5012924;28;20199;-57
2023/06/28 03:42:56;;;;;;;3.78;3.40;;;;;;;21.44;89.54;97856.28;5014291;28;20179;-57
2023/06/28 03:45:21;;;;;;;3.92;3.40;;;;;;;21.46;89.34;97854.28;5048649;28;20193;-57
2023/06/28 03:47:51;;;;;;;5.43;3.72;;;;;;;21.35;89.74;97846.84;5054814;28;20169;-57
2023/06/28 03:50:16;;;;;;;4.40;3.45;;;;;;;21.46;88.96;97855.09;5054857;28;20185;-57
2023/06/28 03:52:42;;;;;;;4.10;3.60;;;;;;;21.58;89.80;97874.66;5054812;28;20261;-57
2023/06/28 03:55:08;;;;;;;5.30;3.30;;;;;;;21.43;89.79;97849.34;5054780;28;20252;-57
2023/06/28 03:57:33;;;;;;;4.82;3.70;;;;;;;21.52;91.06;97869.31;5054634;28;20550;-57
2023/06/28 03:59:59;;;;;;;4.05;3.70;;;;;;;21.60;90.07;97882.34;5054671;28;20183;-57
2023/06/28 04:02:26;;;;;;;4.63;4.22;;;;;;;21.61;89.90;97878.75;5054632;28;20587;-57
2023/06/28 04:04:51;;;;;;;8.93;3.65;;;;;;;21.57;89.93;97878.28;5031842;28;20236;-57
2023/06/28 04:07:16;;;;;;;4.03;3.33;;;;;;;21.56;90.11;97857.41;5032122;28;20575;-57
2023/06/28 04:09:43;;;;;;;5.03;3.45;;;;;;;21.66;89.43;97864.00;5012138;28;20187;-57
2023/06/28 04:12:08;;;;;;;5.13;3.50;;;;;;;21.79;89.79;97876.53;5012305;28;20191;-57
2023/06/28 04:14:34;;;;;;;4.93;3.58;;;;;;;21.90;88.49;97865.47;5012169;28;20201;-57
2023/06/28 04:16:59;;;;;;;3.60;3.30;;;;;;;21.78;87.74;97845.91;5012140;28;20852;-57
2023/06/28 04:19:25;;;;;;;4.88;3.92;;;;;;;21.83;87.80;97856.69;5010823;28;20672;-57
2023/06/28 04:21:50;;;;;;;3.60;3.30;;;;;;;21.72;88.90;97844.03;5012105;28;20261;-57
2023/06/28 04:24:16;;;;;;;6.20;3.60;;;;;;;21.70;88.71;97823.16;5012302;28;20197;-57
2023/06/28 04:26:41;;;;;;;4.25;3.47;;;;;;;21.86;88.26;97849.22;5012091;28;20178;-57
2023/06/28 04:29:06;;;;;;;8.35;5.40;;;;;;;21.82;88.95;97855.06;5011955;28;20190;-57
2023/06/28 04:31:33;;;;;;;4.03;3.67;;;;;;;21.84;88.61;97864.41;5011993;28;20182;-57
2023/06/28 04:33:59;;;;;;;3.80;3.50;;;;;;;21.61;90.43;97862.94;5011864;28;20190;-57
2023/06/28 04:36:25;;;;;;;4.00;3.70;;;;;;;21.69;90.59;97870.75;5026321;28;20277;-57
2023/06/28 04:38:52;;;;;;;4.60;3.75;;;;;;;21.63;90.60;97874.09;5030875;28;20185;-57
2023/06/28 04:41:27;;;;;;;4.72;3.78;;;;;;;21.72;90.05;97867.72;5047928;28;20182;-57
2023/06/28 04:43:57;;;;;;;3.88;3.53;;;;;;;21.56;91.39;97866.13;5053671;28;20173;-57
2023/06/28 04:46:26;;;;;;;4.65;3.65;;;;;;;21.59;90.91;97859.66;5054019;28;20258;-56
2023/06/28 04:48:52;;;;;;;4.32;3.75;;;;;;;21.62;90.87;97859.31;5053663;28;20643;-57
2023/06/28 04:51:18;;;;;;;4.18;3.80;;;;;;;21.73;89.88;97878.06;5053585;28;20239;-57
2023/06/28 04:53:43;;;;;;;6.10;3.67;;;;;;;21.68;90.11;97855.94;5053658;28;20181;-57
2023/06/28 04:56:09;;;;;;;4.60;4.20;;;;;;;21.84;89.12;97874.13;5053520;28;20170;-57
2023/06/28 04:58:37;;;;;;;4.05;3.65;;;;;;;21.82;89.78;97887.50;5053444;28;20251;-57
2023/06/28 05:01:07;;;;;;;4.03;3.60;;;;;;;21.90;90.75;97879.47;5053484;28;20264;-56
2023/06/28 05:03:34;;;;;;;3.60;3.35;;;;;;;21.89;91.71;97871.75;5053376;28;20228;-57
2023/06/28 05:06:02;;;;;;;3.45;3.25;;;;;;;21.85;91.75;97849.44;5052339;28;20173;-57
2023/06/28 05:08:28;;;;;;;3.78;3.47;;;;;;;22.14;90.58;97871.16;5053390;28;20173;-57
2023/06/28 05:10:54;;;;;;;3.72;3.42;;;;;;;22.30;90.11;97870.91;5053250;28;20184;-57
2023/06/28 05:13:21;;;;;;;4.50;3.78;;;;;;;22.49;89.90;97888.69;5053062;28;20606;-57
2023/06/28 05:15:46;;;;;;;4.00;3.63;;;;;;;22.42;91.50;97868.53;5053160;28;20173;-57
2023/06/28 05:18:12;;;;;;;5.07;3.85;;;;;;;22.60;91.10;97879.47;5053121;28;20567;-57
2023/06/28 05:20:37;;;;;;;6.18;3.60;;;;;;;22.65;90.37;97874.41;5070474;28;20280;-57
2023/06/28 05:23:13;;;;;;;6.45;3.67;;;;;;;22.86;90.18;97882.25;5070666;28;20220;-57
2023/06/28 05:25:40;;;;;;;3.70;3.40;;;;;;;22.89;87.99;97852.84;5070465;28;20184;-57
2023/06/28 05:28:06;;;;;;;4.00;3.60;;;;;;;23.18;88.73;97871.06;5070556;28;20184;-57
2023/06/28 05:30:32;;;;;;;3.90;3.55;;;;;;;23.22;86.93;97859.94;5070108;28;20184;-57
2023/06/28 05:32:58;;;;;;;4.13;3.83;;;;;;;23.36;86.56;97855.53;5070485;28;20758;-57
2023/06/28 05:35:24;;;;;;;3.95;3.65;;;;;;;23.67;85.77;97889.13;5070265;28;20621;-57
2023/06/28 05:37:49;;;;;;;5.32;4.15;;;;;;;23.81;85.04;97874.91;5070197;28;20240;-57
2023/06/28 05:40:15;;;;;;;17.35;7.63;;;;;;;24.01;85.33;97872.31;5070069;28;20680;-57
2023/06/28 05:42:40;;;;;;;7.28;4.60;;;;;;;24.26;84.25;97890.03;5070209;28;20199;-57
2023/06/28 05:45:06;;;;;;;5.68;4.10;;;;;;;24.23;79.86;97865.03;5069791;28;20184;-57
2023/06/28 05:47:31;;;;;;;4.40;3.42;;;;;;;24.44;80.81;97890.22;5069389;28;20216;-57
2023/06/28 05:49:57;;;;;;;4.30;3.90;;;;;;;24.29;77.71;97865.03;5069122;28;20692;-57
2023/06/28 05:52:22;;;;;;;4.10;3.70;;;;;;;24.49;76.33;97893.09;5052948;28;20197;-57
2023/06/28 05:54:47;;;;;;;3.72;3.40;;;;;;;24.40;76.96;97902.25;5049875;28;20270;-57
2023/06/28 05:57:13;;;;;;;4.28;3.50;;;;;;;24.42;76.18;97905.50;5049954;28;20205;-57
2023/06/28 05:59:39;;;;;;;4.10;3.70;;;;;;;24.25;77.30;97893.69;5049923;28;20596;-57
2023/06/28 06:02:04;;;;;;;4.90;3.35;;;;;;;24.16;78.22;97878.25;5049949;28;20587;-57
2023/06/28 06:04:30;;;;;;;5.20;3.75;;;;;;;24.19;78.02;97870.72;5049797;28;20200;-57
2023/06/28 06:06:55;;;;;;;6.05;3.83;;;;;;;24.32;78.33;97877.84;5049862;28;20208;-57
2023/06/28 06:09:21;;;;;;;3.63;3.33;;;;;;;24.30;76.96;97867.47;5049876;28;20178;-57
2023/06/28 06:11:47;;;;;;;4.05;3.70;;;;;;;24.40;76.27;97880.28;5051236;28;20204;-57
2023/06/28 06:14:13;;;;;;;4.25;3.67;;;;;;;24.45;77.04;97878.63;5052174;28;20189;-57
2023/06/28 06:16:38;;;;;;;4.07;3.42;;;;;;;24.46;77.48;97874.16;5052040;28;20760;-57
2023/06/28 06:19:04;;;;;;;4.03;3.72;;;;;;;24.58;77.49;97878.66;5052085;28;20184;-57
2023/06/28 06:21:29;;;;;;;8.00;6.00;;;;;;;24.73;77.79;97881.88;5052090;28;20165;-57
2023/06/28 06:23:54;;;;;;;7.97;6.55;;;;;;;24.73;76.05;97860.72;5052071;28;20184;-57
2023/06/28 06:26:20;;;;;;;5.88;3.78;;;;;;;24.79;75.34;97875.75;5051991;28;20173;-57
2023/06/28 06:28:45;;;;;;;5.95;3.95;;;;;;;24.85;74.74;97874.94;5051991;28;20607;-57
2023/06/28 06:31:13;;;;;;;5.88;3.50;;;;;;;24.82;76.01;97862.13;5051711;28;20173;-57
2023/06/28 06:33:39;;;;;;;4.97;3.50;;;;;;;24.92;74.86;97865.16;5051926;28;20177;-57
2023/06/28 06:36:05;;;;;;;3.80;3.50;;;;;;;25.09;74.62;97890.13;5051611;28;20527;-57
2023/06/28 06:38:30;;;;;;;3.67;3.38;;;;;;;25.10;75.50;97889.13;5051838;28;20219;-57
2023/06/28 06:40:56;;;;;;;3.90;3.60;;;;;;;25.09;74.43;97853.06;5051211;28;20175;-57
2023/06/28 06:43:21;;;;;;;3.88;3.58;;;;;;;25.32;74.47;97861.34;5051158;28;20173;-57
2023/06/28 06:45:46;;;;;;;4.60;4.20;;;;;;;25.31;72.62;97843.03;5051448;28;20180;-57
2023/06/28 06:48:12;;;;;;;5.82;3.88;;;;;;;25.56;73.25;97868.59;5051847;28;20183;-57
2023/06/28 06:50:37;;;;;;;3.58;3.38;;;;;;;25.60;73.95;97864.47;5051687;28;20196;-57
2023/06/28 06:53:03;;;;;;;5.38;3.67;;;;;;;25.63;72.92;97837.56;5051722;28;20639;-57
2023/06/28 06:55:28;;;;;;;3.90;3.55;;;;;;;25.91;72.91;97861.88;5051756;28;20259;-57
2023/06/28 06:57:54;;;;;;;4.22;3.90;;;;;;;25.93;72.16;97854.53;5051537;28;20209;-57
2023/06/28 07:00:19;;;;;;;6.32;3.65;;;;;;;26.08;72.29;97857.69;5069118;28;20185;-57
2023/06/28 07:02:45;;;;;;;4.00;3.67;;;;;;;26.01;71.48;97833.03;5068993;28;20188;-57
2023/06/28 07:05:10;;;;;;;4.28;3.65;;;;;;;26.19;70.47;97841.03;5069516;28;20191;-57
2023/06/28 07:07:35;;;;;;;5.30;3.78;;;;;;;26.40;69.27;97851.28;5069223;28;20246;-57
2023/06/28 07:10:01;;;;;;;6.53;5.07;;;;;;;26.38;67.12;97836.59;5069437;28;20263;-57
2023/06/28 07:12:26;;;;;;;5.78;5.22;;;;;;;26.50;67.97;97840.16;5069152;28;20180;-57
2023/06/28 07:14:51;;;;;;;4.65;4.25;;;;;;;26.73;68.02;97859.78;5069126;28;20187;-57
2023/06/28 07:17:19;;;;;;;5.38;4.28;;;;;;;26.68;67.02;97840.22;5069252;28;20212;-57
2023/06/28 07:19:45;;;;;;;6.13;4.72;;;;;;;26.84;67.06;97852.91;5069091;28;20249;-57
2023/06/28 07:22:12;;;;;;;9.40;5.53;;;;;;;26.87;66.49;97855.94;5069070;28;20215;-57
2023/06/28 07:24:37;;;;;;;6.95;5.88;;;;;;;26.98;67.15;97859.69;5069034;28;20216;-57
2023/06/28 07:27:03;;;;;;;6.60;5.95;;;;;;;27.03;67.27;97852.69;5069022;28;20272;-57
2023/06/28 07:29:28;;;;;;;9.45;6.78;;;;;;;26.97;67.03;97856.25;5069035;28;20176;-58
2023/06/28 07:31:54;;;;;;;9.70;7.00;;;;;;;27.02;66.78;97839.63;5055516;28;20196;-57
2023/06/28 07:34:20;;;;;;;9.43;6.38;;;;;;;27.13;66.61;97849.53;5051401;28;20165;-57
2023/06/28 07:36:46;;;;;;;9.35;6.78;;;;;;;27.13;66.17;97858.31;5051245;28;20709;-57
2023/06/28 07:39:11;;;;;;;11.70;6.10;;;;;;;27.12;66.45;97856.66;5051326;28;20169;-57
2023/06/28 07:41:36;;;;;;;7.65;6.82;;;;;;;27.13;65.78;97854.84;5051264;28;20174;-57
2023/06/28 07:44:02;;;;;;;8.27;7.47;;;;;;;27.08;66.28;97855.50;5051319;28;20181;-57
2023/06/28 07:46:28;;;;;;;7.45;6.75;;;;;;;27.11;65.99;97841.75;5051163;28;20203;-57
2023/06/28 07:48:53;;;;;;;9.55;7.10;;;;;;;27.26;65.41;97852.03;5051265;28;20174;-57
2023/06/28 07:51:18;;;;;;;9.93;6.38;;;;;;;27.24;66.23;97832.88;5051233;28;20201;-57
2023/06/28 07:53:45;;;;;;;8.60;7.00;;;;;;;27.40;65.88;97832.25;5053314;28;20550;-57
2023/06/28 07:56:12;;;;;;;11.32;6.85;;;;;;;27.66;65.03;97850.47;5054468;28;20719;-57
2023/06/28 07:58:37;;;;;;;12.88;6.28;;;;;;;27.77;63.02;97842.59;5054605;28;20228;-57
2023/06/28 08:01:02;;;;;;;8.63;6.70;;;;;;;27.85;62.69;97844.09;5054660;28;20256;-57
2023/06/28 08:03:28;;;;;;;9.13;6.45;;;;;;;27.79;63.09;97821.06;5054642;28;20185;-57
2023/06/28 08:05:53;;;;;;;7.60;6.88;;;;;;;27.90;61.93;97839.72;5071898;28;20705;-57
2023/06/28 08:08:19;;;;;;;8.32;6.43;;;;;;;27.87;58.46;97842.81;5072038;28;20674;-57
2023/06/28 08:10:44;;;;;;;7.68;7.03;;;;;;;27.84;59.35;97826.53;5072082;28;20190;-58
2023/06/28 08:13:09;;;;;;;5.80;5.30;;;;;;;27.89;58.44;97811.50;5072044;28;20180;-57
2023/06/28 08:15:36;;;;;;;7.95;6.07;;;;;;;28.19;56.31;97838.03;5011922;28;20197;-57
2023/06/28 08:18:03;;;;;;;6.03;5.30;;;;;;;28.21;54.44;97826.13;5012027;28;20261;-57
2023/06/28 08:20:29;;;;;;;5.40;5.05;;;;;;;28.33;54.11;97818.94;4992393;28;20310;-57
2023/06/28 08:22:54;;;;;;;6.13;5.47;;;;;;;28.35;53.20;97824.88;4992519;28;20728;-57
2023/06/28 08:25:20;;;;;;;5.85;5.25;;;;;;;28.50;52.27;97841.22;4992307;28;20282;-57
2023/06/28 08:27:45;;;;;;;6.40;5.85;;;;;;;28.52;53.42;97833.78;4972805;28;20195;-57
2023/06/28 08:30:11;;;;;;;7.03;5.60;;;;;;;28.40;53.08;97797.59;4972974;28;20195;-56
2023/06/28 08:32:37;;;;;;;7.93;5.82;;;;;;;28.60;51.43;97825.47;4972895;28;20188;-56
2023/06/28 08:35:04;;;;;;;5.60;5.15;;;;;;;28.63;51.13;97817.00;4972789;28;20609;-57
2023/06/28 08:37:34;;;;;;;7.95;5.22;;;;;;;28.66;50.54;97813.06;4953263;28;20270;-57
2023/06/28 08:40:00;;;;;;;5.80;5.20;;;;;;;28.81;49.61;97829.38;4953429;28;20232;-57
2023/06/28 08:42:29;;;;;;;6.75;5.10;;;;;;;28.85;49.59;97828.66;4953491;28;20196;-57
2023/06/28 08:44:57;;;;;;;5.80;5.30;;;;;;;28.72;50.79;97814.78;4953378;28;20195;-57
2023/06/28 08:47:28;;;;;;;7.97;5.40;;;;;;;28.91;51.06;97832.28;4953248;28;20192;-57
2023/06/28 08:49:54;;;;;;;9.35;5.20;;;;;;;28.93;50.94;97830.97;4953572;28;20184;-57
2023/06/28 08:52:22;;;;;;;7.78;5.32;;;;;;;28.89;49.78;97813.84;4969725;28;20218;-57
2023/06/28 08:54:48;;;;;;;6.47;5.68;;;;;;;28.87;50.95;97799.13;4991810;28;20199;-57
2023/06/28 08:57:16;;;;;;;6.07;5.50;;;;;;;29.09;49.38;97824.16;4992077;28;20223;-57
2023/06/28 08:59:42;;;;;;;6.20;5.60;;;;;;;29.12;50.15;97818.31;4972223;28;20191;-57
2023/06/28 09:02:16;;;;;;;7.97;5.72;;;;;;;29.12;50.90;97808.50;4972373;28;20670;-57
2023/06/28 09:04:42;;;;;;;7.07;5.40;;;;;;;29.01;48.65;97790.69;4982612;28;20214;-57
2023/06/28 09:07:08;;;;;;;5.80;5.30;;;;;;;29.12;49.68;97808.50;4952805;29;20694;-57
2023/06/28 09:09:35;;;;;;;5.95;5.35;;;;;;;29.23;50.28;97802.31;4989285;28;20198;-57
2023/06/28 09:12:02;;;;;;;7.13;6.43;;;;;;;29.33;49.20;97809.69;4971837;28;20230;-57
2023/06/28 09:14:28;;;;;;;7.47;5.50;;;;;;;29.31;49.35;97807.25;4971851;28;20223;-57
2023/06/28 09:16:54;;;;;;;9.10;6.32;;;;;;;29.28;50.21;97801.59;4990933;28;20261;-57
2023/06/28 09:19:19;;;;;;;6.50;5.88;;;;;;;29.39;50.60;97806.88;4991254;28;20618;-57
2023/06/28 09:21:45;;;;;;;7.53;6.43;;;;;;;29.50;50.11;97799.88;4991157;28;20248;-57
2023/06/28 09:24:12;;;;;;;8.70;6.07;;;;;;;29.49;48.93;97783.06;4991066;28;20191;-57
2023/06/28 09:26:41;;;;;;;6.00;5.50;;;;;;;29.59;49.19;97796.63;4991300;28;20187;-57
2023/06/28 09:29:10;;;;;;;7.15;5.50;;;;;;;29.52;49.77;97787.94;4991169;28;20195;-57
2023/06/28 09:31:42;;;;;;;8.68;6.50;;;;;;;29.39;48.50;97766.88;4980485;28;20262;-57
2023/06/28 09:34:08;;;;;;;6.20;5.70;;;;;;;29.55;48.85;97789.34;4952468;29;20211;-57
2023/06/28 09:36:37;;;;;;;5.68;5.18;;;;;;;29.58;48.48;97780.84;4957530;28;20184;-57
2023/06/28 09:39:05;;;;;;;5.93;5.22;;;;;;;29.75;47.27;97803.84;4988753;28;20229;-57
2023/06/28 09:41:51;;;;;;;6.47;5.25;;;;;;;29.81;47.83;97786.06;5008643;28;20677;-57
2023/06/28 09:44:29;;;;;;;5.82;5.32;;;;;;;29.76;49.49;97764.63;5009592;28;20194;-57
2023/06/28 09:47:03;;;;;;;7.82;5.68;;;;;;;29.89;49.88;97777.63;5010471;28;20178;-57
2023/06/28 09:49:29;;;;;;;8.57;5.50;;;;;;;29.97;47.43;97794.06;5021755;28;20618;-57
2023/06/28 09:52:06;;;;;;;9.73;5.47;;;;;;;30.03;46.33;97798.41;5032614;28;20228;-57
2023/06/28 09:54:48;;;;;;;10.88;6.32;;;;;;;30.01;46.13;97792.53;5032599;28;20256;-57
2023/06/28 09:57:13;;;;;;;7.00;5.97;;;;;;;30.06;46.92;97789.94;5032534;28;20213;-57
2023/06/28 09:59:39;;;;;;;7.55;6.15;;;;;;;29.94;45.63;97770.53;5032196;28;20181;-57
2023/06/28 10:02:06;;;;;;;7.53;5.90;;;;;;;30.02;46.43;97791.47;5032487;28;20236;-57
2023/06/28 10:04:35;;;;;;;11.32;6.00;;;;;;;30.12;46.33;97793.50;5032521;28;20217;-57
2023/06/28 10:07:02;;;;;;;9.32;6.25;;;;;;;30.27;45.73;97788.41;5032382;28;20178;-57
2023/06/28 10:09:35;;;;;;;7.63;5.97;;;;;;;30.41;45.44;97793.19;5032288;28;20189;-57
2023/06/28 10:12:14;;;;;;;6.78;6.00;;;;;;;30.38;45.29;97772.28;5032344;28;20177;-57
2023/06/28 10:14:43;;;;;;;6.45;5.85;;;;;;;30.40;46.42;97786.22;5032307;28;20188;-57
2023/06/28 10:17:09;;;;;;;6.70;5.97;;;;;;;29.97;45.73;97780.72;5032095;28;20762;-57
2023/06/28 10:19:35;;;;;;;6.30;5.80;;;;;;;29.81;45.91;97748.69;5032173;28;20235;-56
2023/06/28 10:22:01;;;;;;;8.05;5.63;;;;;;;29.91;46.93;97765.66;5049431;28;20233;-56
2023/06/28 10:24:31;;;;;;;8.02;5.93;;;;;;;29.76;46.65;97757.44;5049556;28;20263;-56
2023/06/28 10:27:00;;;;;;;6.35;5.75;;;;;;;29.75;47.08;97755.81;5049633;28;20202;-56
2023/06/28 10:29:26;;;;;;;7.07;5.85;;;;;;;29.89;46.53;97762.44;5049623;28;20184;-56
2023/06/28 10:31:52;;;;;;;10.02;5.78;;;;;;;30.11;46.84;97752.69;5049553;28;20192;-56
2023/06/28 10:34:18;;;;;;;6.47;5.68;;;;;;;30.34;46.74;97752.50;5049530;28;20254;-56
2023/06/28 10:36:44;;;;;;;8.00;6.47;;;;;;;30.65;45.81;97767.91;5049406;28;20285;-56
2023/06/28 10:39:09;;;;;;;7.35;6.28;;;;;;;30.79;45.14;97771.00;5049516;28;20185;-56
2023/06/28 10:41:36;;;;;;;7.00;5.95;;;;;;;30.93;44.86;97762.38;5049409;28;20188;-57
2023/06/28 10:44:03;;;;;;;7.32;6.22;;;;;;;30.90;44.95;97765.53;5049750;28;20292;-56
2023/06/28 10:46:29;;;;;;;6.20;5.60;;;;;;;30.75;45.32;97744.00;5049331;28;20563;-56
2023/06/28 10:48:56;;;;;;;5.50;5.07;;;;;;;30.73;44.59;97740.75;5049298;28;20181;-56
2023/06/28 10:51:25;;;;;;;7.18;5.75;;;;;;;30.86;44.33;97737.72;5049285;28;20264;-57
2023/06/28 10:53:59;;;;;;;9.85;5.90;;;;;;;31.07;43.43;97733.41;5034077;28;20185;-56
2023/06/28 10:56:38;;;;;;;9.82;6.05;;;;;;;31.30;43.96;97760.69;5031510;28;20531;-57
2023/06/28 10:59:06;;;;;;;8.45;5.50;;;;;;;31.42;43.04;97749.84;5031852;28;20186;-56
2023/06/28 11:01:56;;;;;;;7.05;5.40;;;;;;;31.78;42.95;97749.91;5031697;28;20178;-57
2023/06/28 11:04:22;;;;;;;7.80;5.60;;;;;;;32.12;41.96;97764.63;5030961;28;20284;-57
2023/06/28 11:07:03;;;;;;;6.85;5.38;;;;;;;32.43;41.91;97757.66;5031754;28;20174;-57
2023/06/28 11:09:28;;;;;;;6.82;5.30;;;;;;;32.14;41.06;97757.19;5031391;28;20217;-57
2023/06/28 11:11:58;;;;;;;7.95;5.53;;;;;;;31.79;42.74;97746.19;5031654;28;20718;-57
2023/06/28 11:14:25;;;;;;;6.28;5.80;;;;;;;31.42;43.16;97726.56;5031618;28;20664;-57
2023/06/28 11:16:52;;;;;;;6.95;5.88;;;;;;;31.37;43.39;97723.03;5031385;28;20205;-57
2023/06/28 11:19:24;;;;;;;6.55;5.88;;;;;;;31.50;43.09;97746.69;5031883;28;20178;-57
2023/06/28 11:21:57;;;;;;;8.05;5.70;;;;;;;31.49;41.97;97747.75;5031528;28;20170;-57
2023/06/28 11:24:49;;;;;;;6.78;6.07;;;;;;;31.41;42.62;97746.34;5031225;28;20188;-56
2023/06/28 11:27:19;;;;;;;6.35;5.75;;;;;;;31.31;44.44;97724.06;5031367;28;20566;-57
2023/06/28 11:29:57;;;;;;;7.43;5.82;;;;;;;31.28;44.18;97720.03;5034967;28;20182;-56
2023/06/28 11:32:27;;;;;;;7.63;5.63;;;;;;;31.51;43.42;97751.81;5034768;28;20671;-56